createdAt,value
2023-04-26T03:41:05.017Z,99907.81
2023-04-26T03:44:08.525Z,99907.81
2023-04-26T03:47:11.203Z,99903.78
2023-04-26T03:50:14.347Z,99916.19
2023-04-26T03:53:16.982Z,99907.53
2023-04-26T03:56:20.023Z,99910.94
2023-04-26T03:59:23.774Z,99920.50
2023-04-26T04:02:26.995Z,99918.84
2023-04-26T04:05:31.215Z,99926.47
2023-04-26T04:08:34.212Z,99927.97
2023-04-26T04:11:37.224Z,99934.44
2023-04-26T04:14:39.982Z,99945.56
2023-04-26T04:17:43.015Z,99940.81
2023-04-26T04:20:46.445Z,99949.38
2023-04-26T04:23:50.371Z,99942.38
2023-04-26T04:26:53.113Z,99932.44
2023-04-26T04:29:56.361Z,99927.09
2023-04-26T04:33:00.287Z,99950.91
2023-04-26T04:36:03.563Z,99949.03
2023-04-26T04:39:12.359Z,99960.16
2023-04-26T04:42:16.059Z,99963.97
2023-04-26T04:45:18.798Z,99973.69
2023-04-26T04:48:30.390Z,99976.31
2023-04-26T04:51:33.297Z,99971.22
2023-04-26T04:54:36.286Z,99983.38
2023-04-26T04:57:40.612Z,99985.22
2023-04-26T05:00:47.010Z,99987.34
2023-04-26T05:03:50.700Z,99991.13
2023-04-26T05:06:54.160Z,100004.84
2023-04-26T05:09:58.531Z,99997.66
2023-04-26T05:13:01.723Z,100010.66
2023-04-26T05:16:04.486Z,100014.94
2023-04-26T05:19:09.496Z,100012.66
2023-04-26T05:22:21.177Z,100014.72
2023-04-26T05:25:24.180Z,100030.56
2023-04-26T05:28:28.000Z,100020.81
2023-04-26T05:31:32.837Z,100013.03
2023-04-26T05:34:36.631Z,100024.06
2023-04-26T05:37:40.131Z,100026.03
2023-04-26T05:40:43.368Z,100026.91
2023-04-26T05:43:47.760Z,100032.91
2023-04-26T05:46:50.688Z,100024.38
2023-04-26T05:49:53.860Z,100034.53
2023-04-26T05:52:56.466Z,100036.31
2023-04-26T05:55:59.366Z,100041.66
2023-04-26T05:59:02.244Z,100051.25
2023-04-26T06:02:07.131Z,100053.34
2023-04-26T06:05:10.793Z,100053.69
2023-04-26T06:08:14.168Z,100053.56
2023-04-26T06:11:17.186Z,100053.75
2023-04-26T06:14:29.837Z,100063.59
2023-04-26T06:17:34.077Z,100057.50
2023-04-26T06:20:36.911Z,100068.88
2023-04-26T06:23:41.851Z,100070.19
2023-04-26T06:26:44.528Z,100071.78
2023-04-26T06:29:47.758Z,100076.88
2023-04-26T06:32:51.539Z,100070.06
2023-04-26T06:35:54.478Z,100070.59
2023-04-26T06:38:57.172Z,100070.09
2023-04-26T06:42:03.608Z,100064.41
2023-04-26T06:45:09.096Z,100068.75
2023-04-26T06:48:12.213Z,100067.41
2023-04-26T06:51:15.040Z,100079.03
2023-04-26T06:54:17.804Z,100074.13
2023-04-26T06:57:20.500Z,100071.66
2023-04-26T07:00:23.870Z,100081.84
2023-04-26T07:03:27.026Z,100076.84
2023-04-26T07:06:34.095Z,100073.28
2023-04-26T07:09:37.046Z,100074.00
2023-04-26T07:12:40.010Z,100081.09
2023-04-26T07:15:42.713Z,100073.75
2023-04-26T07:18:48.298Z,100074.16
2023-04-26T07:21:51.050Z,100081.81
2023-04-26T07:24:54.341Z,100082.66
2023-04-26T07:27:57.073Z,100068.50
2023-04-26T07:31:01.660Z,100072.91
2023-04-26T07:34:04.369Z,100084.44
2023-04-26T07:37:07.208Z,100088.44
2023-04-26T07:40:11.544Z,100100.41
2023-04-26T07:43:15.653Z,100103.97
2023-04-26T07:46:18.667Z,100101.63
2023-04-26T07:49:21.775Z,100106.31
2023-04-26T07:52:24.475Z,100111.44
2023-04-26T07:55:27.500Z,100111.50
2023-04-26T07:58:30.282Z,100110.03
2023-04-26T08:01:33.685Z,100114.94
2023-04-26T08:04:36.988Z,100125.25
2023-04-26T08:07:40.284Z,100122.06
2023-04-26T08:10:43.139Z,100129.63
2023-04-26T08:13:46.327Z,100138.34
2023-04-26T08:16:49.417Z,100125.37
2023-04-26T08:19:52.114Z,100127.34
2023-04-26T08:22:58.463Z,100135.53
2023-04-26T08:26:01.456Z,100141.22
2023-04-26T08:29:04.195Z,100146.22
2023-04-26T08:32:07.259Z,100137.12
2023-04-26T08:35:10.741Z,100135.28
2023-04-26T08:38:13.525Z,100135.03
2023-04-26T08:41:22.532Z,100150.50
2023-04-26T08:44:25.698Z,100153.13
2023-04-26T08:47:36.501Z,100144.53
2023-04-26T08:50:40.745Z,100148.87
2023-04-26T08:53:44.116Z,100155.59
2023-04-26T08:56:47.884Z,100166.16
2023-04-26T08:59:52.790Z,100159.66
2023-04-26T09:02:55.746Z,100162.59
2023-04-26T09:06:01.141Z,100159.37
2023-04-26T09:09:29.725Z,100171.59
2023-04-26T09:12:32.770Z,100159.25
2023-04-26T09:15:35.832Z,100161.16
2023-04-26T09:18:47.424Z,100162.00
2023-04-26T09:21:50.012Z,100156.44
2023-04-26T09:24:53.065Z,100162.44
2023-04-26T09:27:55.974Z,100155.19
2023-04-26T09:30:59.150Z,100158.38
2023-04-26T09:34:01.822Z,100158.78
2023-04-26T09:37:04.872Z,100156.97
2023-04-26T09:40:19.558Z,100161.84
2023-04-26T09:43:23.063Z,100159.56
2023-04-26T09:46:37.087Z,100155.87
2023-04-26T09:49:49.129Z,100154.69
2023-04-26T09:52:51.893Z,100161.38
2023-04-26T09:55:55.281Z,100153.00
2023-04-26T09:59:00.690Z,100155.53
2023-04-26T10:02:03.908Z,100165.19
2023-04-26T10:05:07.639Z,100153.03
2023-04-26T10:08:10.473Z,100154.44
2023-04-26T10:11:14.077Z,100153.94
2023-04-26T10:14:16.601Z,100157.62
2023-04-26T10:17:21.043Z,100148.91
2023-04-26T10:20:27.145Z,100152.56
2023-04-26T10:23:30.188Z,100153.38
2023-04-26T10:26:54.972Z,100148.53
2023-04-26T10:29:59.270Z,100162.22
2023-04-26T10:33:02.273Z,100164.38
2023-04-26T10:36:14.494Z,100162.91
2023-04-26T10:39:30.776Z,100157.56
2023-04-26T10:42:33.949Z,100143.34
2023-04-26T10:45:37.369Z,100152.69
2023-04-26T10:48:40.566Z,100152.97
2023-04-26T10:52:16.297Z,100143.84
2023-04-26T10:55:40.030Z,100159.28
2023-04-26T10:58:46.349Z,100160.19
2023-04-26T11:01:49.530Z,100162.84
2023-04-26T11:04:53.090Z,100161.25
2023-04-26T11:08:06.701Z,100165.34
2023-04-26T11:11:12.752Z,100165.47
2023-04-26T11:14:16.448Z,100152.22
2023-04-26T11:17:20.402Z,100156.13
2023-04-26T11:20:23.681Z,100160.31
2023-04-26T11:23:28.889Z,100149.34
2023-04-26T11:26:37.085Z,100153.53
2023-04-26T11:29:39.730Z,100156.13
2023-04-26T11:32:42.489Z,100162.72
2023-04-26T11:35:47.613Z,100168.19
2023-04-26T11:38:51.697Z,100165.28
2023-04-26T11:42:11.498Z,100172.59
2023-04-26T11:45:18.766Z,100161.84
2023-04-26T11:48:21.682Z,100170.41
2023-04-26T11:51:25.965Z,100165.78
2023-04-26T11:54:30.329Z,100161.25
2023-04-26T11:57:34.298Z,100159.37
2023-04-26T12:00:37.056Z,100158.47
2023-04-26T12:03:40.488Z,100162.78
2023-04-26T12:06:45.150Z,100169.31
2023-04-26T12:09:48.354Z,100178.56
2023-04-26T12:12:51.837Z,100171.25
2023-04-26T12:15:54.821Z,100159.66
2023-04-26T12:18:58.207Z,100169.84
2023-04-26T12:22:01.599Z,100157.84
2023-04-26T12:25:06.417Z,100174.50
2023-04-26T12:28:13.754Z,100180.31
2023-04-26T12:31:16.874Z,100168.25
2023-04-26T12:34:19.905Z,100172.66
2023-04-26T12:37:22.719Z,100171.97
2023-04-26T12:40:26.102Z,100167.97
2023-04-26T12:43:28.572Z,100183.75
2023-04-26T12:46:31.454Z,100181.03
2023-04-26T12:49:34.497Z,100173.25
2023-04-26T12:52:37.441Z,100178.25
2023-04-26T12:55:40.303Z,100177.28
2023-04-26T12:58:43.439Z,100182.53
2023-04-26T13:01:46.130Z,100174.00
2023-04-26T13:04:49.232Z,100176.94
2023-04-26T13:07:52.116Z,100186.47
2023-04-26T13:10:55.232Z,100188.63
2023-04-26T13:13:57.988Z,100187.09
2023-04-26T13:17:01.949Z,100192.63
2023-04-26T13:20:06.414Z,100195.75
2023-04-26T13:23:11.647Z,100191.06
2023-04-26T13:26:15.222Z,100187.28
2023-04-26T13:29:18.525Z,100187.09
2023-04-26T13:32:21.998Z,100193.37
2023-04-26T13:35:25.775Z,100200.75
2023-04-26T13:38:32.845Z,100195.31
2023-04-26T13:41:36.912Z,100200.66
2023-04-26T13:44:39.987Z,100196.22
2023-04-26T13:47:43.020Z,100194.41
2023-04-26T13:50:46.181Z,100197.28
2023-04-26T13:53:49.178Z,100190.97
2023-04-26T13:56:52.776Z,100198.28
2023-04-26T13:59:55.961Z,100199.97
2023-04-26T14:02:59.110Z,100203.31
2023-04-26T14:06:03.573Z,100210.13
2023-04-26T14:09:06.982Z,100215.28
2023-04-26T14:12:10.457Z,100212.72
2023-04-26T14:15:13.091Z,100219.06
2023-04-26T14:18:17.374Z,100210.31
2023-04-26T14:21:20.380Z,100206.41
2023-04-26T14:24:23.487Z,100200.69
2023-04-26T14:27:26.175Z,100201.53
2023-04-26T14:30:29.285Z,100205.91
2023-04-26T14:33:32.168Z,100211.25
2023-04-26T14:36:35.154Z,100207.88
2023-04-26T14:39:37.786Z,100207.31
2023-04-26T14:42:45.902Z,100213.84
2023-04-26T14:45:51.301Z,100216.37
2023-04-26T14:48:55.257Z,100216.09
2023-04-26T14:51:57.948Z,100215.16
2023-04-26T14:55:00.754Z,100228.38
2023-04-26T14:58:03.305Z,100221.59
2023-04-26T15:01:06.458Z,100226.75
2023-04-26T15:04:09.398Z,100222.63
2023-04-26T15:07:21.063Z,100222.44
2023-04-26T15:10:31.629Z,100228.78
2023-04-26T15:13:34.803Z,100232.84
2023-04-26T15:16:37.515Z,100232.88
2023-04-26T15:19:40.573Z,100247.09
2023-04-26T15:22:43.378Z,100239.81
2023-04-26T15:25:46.538Z,100238.25
2023-04-26T15:28:49.825Z,100250.34
2023-04-26T15:31:52.994Z,100239.25
2023-04-26T15:34:55.850Z,100237.66
